sensor_id;sensor_type;location;lat;lon;timestamp;P1;durP1;ratioP1;P2;durP2;ratioP2
69057;SDS011;56128;37.534;-122.308;2023-06-26T00:00:58;3.50;;;1.92;;
69057;SDS011;56128;37.534;-122.308;2023-06-26T00:03:25;3.28;;;2.00;;
69057;SDS011;56128;37.534;-122.308;2023-06-26T00:05:51;2.50;;;1.60;;
69057;SDS011;56128;37.534;-122.308;2023-06-26T00:08:17;2.83;;;1.75;;
69057;SDS011;56128;37.534;-122.308;2023-06-26T00:10:43;3.47;;;2.05;;
69057;SDS011;56128;37.534;-122.308;2023-06-26T00:13:11;2.92;;;1.77;;
69057;SDS011;56128;37.534;-122.308;2023-06-26T00:15:37;3.90;;;2.13;;
69057;SDS011;56128;37.534;-122.308;2023-06-26T00:18:04;3.55;;;2.00;;
69057;SDS011;56128;37.534;-122.308;2023-06-26T00:20:30;2.92;;;1.83;;
69057;SDS011;56128;37.534;-122.308;2023-06-26T00:22:59;4.63;;;2.20;;
69057;SDS011;56128;37.534;-122.308;2023-06-26T00:25:25;4.15;;;2.00;;
69057;SDS011;56128;37.534;-122.308;2023-06-26T00:27:52;3.60;;;2.00;;
69057;SDS011;56128;37.534;-122.308;2023-06-26T00:30:18;4.20;;;2.20;;
69057;SDS011;56128;37.534;-122.308;2023-06-26T00:32:44;2.92;;;1.70;;
69057;SDS011;56128;37.534;-122.308;2023-06-26T00:35:10;3.38;;;1.60;;
69057;SDS011;56128;37.534;-122.308;2023-06-26T00:37:36;4.50;;;1.70;;
69057;SDS011;56128;37.534;-122.308;2023-06-26T00:40:03;6.10;;;2.40;;
69057;SDS011;56128;37.534;-122.308;2023-06-26T00:42:30;4.25;;;1.90;;
69057;SDS011;56128;37.534;-122.308;2023-06-26T00:44:57;3.28;;;1.70;;
69057;SDS011;56128;37.534;-122.308;2023-06-26T00:47:23;5.90;;;1.90;;
69057;SDS011;56128;37.534;-122.308;2023-06-26T00:49:51;4.40;;;2.08;;
69057;SDS011;56128;37.534;-122.308;2023-06-26T00:52:17;3.85;;;1.85;;
69057;SDS011;56128;37.534;-122.308;2023-06-26T00:54:44;4.82;;;2.15;;
69057;SDS011;56128;37.534;-122.308;2023-06-26T00:57:10;4.05;;;2.05;;
69057;SDS011;56128;37.534;-122.308;2023-06-26T00:59:36;4.45;;;1.80;;
69057;SDS011;56128;37.534;-122.308;2023-06-26T01:02:03;3.90;;;2.03;;
69057;SDS011;56128;37.534;-122.308;2023-06-26T01:04:30;4.40;;;2.05;;
69057;SDS011;56128;37.534;-122.308;2023-06-26T01:06:57;3.00;;;1.65;;
69057;SDS011;56128;37.534;-122.308;2023-06-26T01:09:25;3.15;;;1.67;;
69057;SDS011;56128;37.534;-122.308;2023-06-26T01:11:52;4.55;;;2.03;;
69057;SDS011;56128;37.534;-122.308;2023-06-26T01:14:18;4.70;;;2.10;;
69057;SDS011;56128;37.534;-122.308;2023-06-26T01:16:44;4.45;;;2.22;;
69057;SDS011;56128;37.534;-122.308;2023-06-26T01:19:23;4.30;;;2.40;;
69057;SDS011;56128;37.534;-122.308;2023-06-26T01:21:51;5.38;;;2.55;;
69057;SDS011;56128;37.534;-122.308;2023-06-26T01:24:24;5.85;;;2.35;;
69057;SDS011;56128;37.534;-122.308;2023-06-26T01:26:57;5.78;;;2.38;;
69057;SDS011;56128;37.534;-122.308;2023-06-26T01:29:25;3.70;;;2.17;;
69057;SDS011;56128;37.534;-122.308;2023-06-26T01:31:54;4.75;;;2.60;;
69057;SDS011;56128;37.534;-122.308;2023-06-26T01:34:20;3.47;;;2.20;;
69057;SDS011;56128;37.534;-122.308;2023-06-26T01:36:47;4.90;;;2.40;;
69057;SDS011;56128;37.534;-122.308;2023-06-26T01:39:18;3.78;;;2.25;;
69057;SDS011;56128;37.534;-122.308;2023-06-26T01:41:45;4.20;;;1.90;;
69057;SDS011;56128;37.534;-122.308;2023-06-26T01:44:15;3.00;;;1.98;;
69057;SDS011;56128;37.534;-122.308;2023-06-26T01:46:59;4.78;;;2.17;;
69057;SDS011;56128;37.534;-122.308;2023-06-26T01:57:52;3.28;;;1.80;;
69057;SDS011;56128;37.534;-122.308;2023-06-26T02:00:22;4.20;;;1.90;;
69057;SDS011;56128;37.534;-122.308;2023-06-26T02:02:49;4.05;;;1.83;;
69057;SDS011;56128;37.534;-122.308;2023-06-26T02:05:16;3.75;;;2.20;;
69057;SDS011;56128;37.534;-122.308;2023-06-26T02:07:42;4.10;;;2.03;;
69057;SDS011;56128;37.534;-122.308;2023-06-26T02:10:09;3.72;;;1.75;;
69057;SDS011;56128;37.534;-122.308;2023-06-26T02:12:36;4.07;;;1.77;;
69057;SDS011;56128;37.534;-122.308;2023-06-26T02:15:03;3.35;;;1.73;;
69057;SDS011;56128;37.534;-122.308;2023-06-26T02:17:30;2.08;;;1.30;;
69057;SDS011;56128;37.534;-122.308;2023-06-26T02:19:56;3.28;;;1.25;;
69057;SDS011;56128;37.534;-122.308;2023-06-26T02:22:22;3.22;;;1.35;;
69057;SDS011;56128;37.534;-122.308;2023-06-26T02:24:49;1.80;;;1.10;;
69057;SDS011;56128;37.534;-122.308;2023-06-26T02:27:15;2.40;;;1.25;;
69057;SDS011;56128;37.534;-122.308;2023-06-26T02:29:41;1.83;;;1.00;;
69057;SDS011;56128;37.534;-122.308;2023-06-26T02:32:08;4.45;;;1.42;;
69057;SDS011;56128;37.534;-122.308;2023-06-26T02:34:34;2.58;;;1.45;;
69057;SDS011;56128;37.534;-122.308;2023-06-26T02:37:01;3.00;;;1.40;;
69057;SDS011;56128;37.534;-122.308;2023-06-26T02:39:27;2.65;;;1.38;;
69057;SDS011;56128;37.534;-122.308;2023-06-26T02:41:53;3.05;;;1.35;;
69057;SDS011;56128;37.534;-122.308;2023-06-26T02:44:20;2.55;;;1.30;;
69057;SDS011;56128;37.534;-122.308;2023-06-26T02:46:46;1.85;;;1.30;;
69057;SDS011;56128;37.534;-122.308;2023-06-26T02:49:12;4.88;;;1.90;;
69057;SDS011;56128;37.534;-122.308;2023-06-26T02:51:39;3.65;;;1.60;;
69057;SDS011;56128;37.534;-122.308;2023-06-26T02:54:06;3.83;;;1.80;;
69057;SDS011;56128;37.534;-122.308;2023-06-26T02:56:34;4.65;;;1.90;;
69057;SDS011;56128;37.534;-122.308;2023-06-26T02:59:01;3.25;;;1.83;;
69057;SDS011;56128;37.534;-122.308;2023-06-26T03:01:27;5.95;;;2.10;;
69057;SDS011;56128;37.534;-122.308;2023-06-26T03:03:53;3.67;;;2.08;;
69057;SDS011;56128;37.534;-122.308;2023-06-26T03:06:19;5.13;;;2.45;;
69057;SDS011;56128;37.534;-122.308;2023-06-26T03:08:46;4.10;;;2.20;;
69057;SDS011;56128;37.534;-122.308;2023-06-26T03:11:12;3.92;;;2.30;;
69057;SDS011;56128;37.534;-122.308;2023-06-26T03:13:38;3.60;;;1.73;;
69057;SDS011;56128;37.534;-122.308;2023-06-26T03:16:05;2.80;;;1.83;;
69057;SDS011;56128;37.534;-122.308;2023-06-26T03:18:31;4.63;;;2.38;;
69057;SDS011;56128;37.534;-122.308;2023-06-26T03:20:58;4.43;;;1.98;;
69057;SDS011;56128;37.534;-122.308;2023-06-26T03:23:25;7.13;;;2.50;;
69057;SDS011;56128;37.534;-122.308;2023-06-26T03:25:51;4.97;;;2.67;;
69057;SDS011;56128;37.534;-122.308;2023-06-26T03:28:17;5.70;;;3.05;;
69057;SDS011;56128;37.534;-122.308;2023-06-26T03:30:43;5.05;;;2.70;;
69057;SDS011;56128;37.534;-122.308;2023-06-26T03:33:10;6.05;;;2.63;;
69057;SDS011;56128;37.534;-122.308;2023-06-26T03:35:36;5.70;;;2.92;;
69057;SDS011;56128;37.534;-122.308;2023-06-26T03:38:03;5.70;;;3.17;;
69057;SDS011;56128;37.534;-122.308;2023-06-26T03:40:30;5.45;;;2.85;;
69057;SDS011;56128;37.534;-122.308;2023-06-26T03:42:56;5.03;;;2.60;;
69057;SDS011;56128;37.534;-122.308;2023-06-26T03:45:22;5.05;;;2.78;;
69057;SDS011;56128;37.534;-122.308;2023-06-26T03:47:48;8.13;;;3.28;;
69057;SDS011;56128;37.534;-122.308;2023-06-26T03:50:15;5.60;;;3.13;;
69057;SDS011;56128;37.534;-122.308;2023-06-26T03:52:42;4.03;;;2.40;;
69057;SDS011;56128;37.534;-122.308;2023-06-26T03:55:08;4.28;;;2.10;;
69057;SDS011;56128;37.534;-122.308;2023-06-26T03:57:34;4.50;;;2.10;;
69057;SDS011;56128;37.534;-122.308;2023-06-26T04:00:00;4.65;;;2.10;;
69057;SDS011;56128;37.534;-122.308;2023-06-26T04:02:31;3.05;;;1.92;;
69057;SDS011;56128;37.534;-122.308;2023-06-26T04:04:57;2.97;;;1.60;;
69057;SDS011;56128;37.534;-122.308;2023-06-26T04:07:23;5.13;;;1.92;;
69057;SDS011;56128;37.534;-122.308;2023-06-26T04:09:50;5.57;;;2.00;;
69057;SDS011;56128;37.534;-122.308;2023-06-26T04:12:16;3.13;;;1.90;;
69057;SDS011;56128;37.534;-122.308;2023-06-26T04:14:42;3.45;;;2.08;;
69057;SDS011;56128;37.534;-122.308;2023-06-26T04:17:08;4.63;;;2.20;;
69057;SDS011;56128;37.534;-122.308;2023-06-26T04:19:35;5.15;;;2.38;;
69057;SDS011;56128;37.534;-122.308;2023-06-26T04:22:02;3.67;;;2.17;;
69057;SDS011;56128;37.534;-122.308;2023-06-26T04:24:28;4.65;;;2.35;;
69057;SDS011;56128;37.534;-122.308;2023-06-26T04:26:54;3.60;;;1.73;;
69057;SDS011;56128;37.534;-122.308;2023-06-26T04:29:24;3.08;;;1.88;;
69057;SDS011;56128;37.534;-122.308;2023-06-26T04:31:54;3.65;;;2.10;;
69057;SDS011;56128;37.534;-122.308;2023-06-26T04:34:24;5.47;;;2.22;;
69057;SDS011;56128;37.534;-122.308;2023-06-26T04:36:50;3.58;;;1.92;;
69057;SDS011;56128;37.534;-122.308;2023-06-26T04:39:17;4.05;;;1.85;;
69057;SDS011;56128;37.534;-122.308;2023-06-26T04:41:44;3.67;;;2.17;;
69057;SDS011;56128;37.534;-122.308;2023-06-26T04:44:10;5.30;;;2.00;;
69057;SDS011;56128;37.534;-122.308;2023-06-26T04:46:37;4.13;;;2.00;;
69057;SDS011;56128;37.534;-122.308;2023-06-26T04:49:09;3.58;;;1.98;;
69057;SDS011;56128;37.534;-122.308;2023-06-26T04:51:36;3.70;;;2.33;;
69057;SDS011;56128;37.534;-122.308;2023-06-26T04:54:09;4.88;;;2.28;;
69057;SDS011;56128;37.534;-122.308;2023-06-26T04:56:36;6.25;;;3.10;;
69057;SDS011;56128;37.534;-122.308;2023-06-26T04:59:05;4.45;;;2.80;;
69057;SDS011;56128;37.534;-122.308;2023-06-26T05:01:31;4.53;;;2.90;;
69057;SDS011;56128;37.534;-122.308;2023-06-26T05:04:00;5.90;;;2.88;;
69057;SDS011;56128;37.534;-122.308;2023-06-26T05:06:27;5.35;;;2.58;;
69057;SDS011;56128;37.534;-122.308;2023-06-26T05:08:53;7.93;;;2.78;;
69057;SDS011;56128;37.534;-122.308;2023-06-26T05:11:20;4.53;;;2.58;;
69057;SDS011;56128;37.534;-122.308;2023-06-26T05:13:46;5.65;;;2.55;;
69057;SDS011;56128;37.534;-122.308;2023-06-26T05:16:12;4.65;;;2.47;;
69057;SDS011;56128;37.534;-122.308;2023-06-26T05:18:38;5.65;;;2.40;;
69057;SDS011;56128;37.534;-122.308;2023-06-26T05:21:04;4.70;;;2.60;;
69057;SDS011;56128;37.534;-122.308;2023-06-26T05:23:31;5.05;;;2.40;;
69057;SDS011;56128;37.534;-122.308;2023-06-26T05:25:59;5.63;;;2.35;;
69057;SDS011;56128;37.534;-122.308;2023-06-26T05:28:27;3.67;;;2.40;;
69057;SDS011;56128;37.534;-122.308;2023-06-26T05:30:59;4.47;;;2.50;;
69057;SDS011;56128;37.534;-122.308;2023-06-26T05:33:26;4.43;;;2.33;;
69057;SDS011;56128;37.534;-122.308;2023-06-26T05:35:53;6.55;;;2.38;;
69057;SDS011;56128;37.534;-122.308;2023-06-26T05:38:20;4.97;;;2.63;;
69057;SDS011;56128;37.534;-122.308;2023-06-26T05:40:46;5.10;;;2.35;;
69057;SDS011;56128;37.534;-122.308;2023-06-26T05:43:13;5.75;;;2.22;;
69057;SDS011;56128;37.534;-122.308;2023-06-26T05:45:40;5.53;;;2.10;;
69057;SDS011;56128;37.534;-122.308;2023-06-26T05:48:06;5.30;;;2.25;;
69057;SDS011;56128;37.534;-122.308;2023-06-26T05:50:32;4.57;;;2.50;;
69057;SDS011;56128;37.534;-122.308;2023-06-26T05:52:59;4.18;;;2.20;;
69057;SDS011;56128;37.534;-122.308;2023-06-26T05:55:28;4.10;;;2.17;;
69057;SDS011;56128;37.534;-122.308;2023-06-26T05:57:54;4.40;;;1.70;;
69057;SDS011;56128;37.534;-122.308;2023-06-26T06:00:25;3.75;;;1.75;;
69057;SDS011;56128;37.534;-122.308;2023-06-26T06:02:52;3.15;;;1.73;;
69057;SDS011;56128;37.534;-122.308;2023-06-26T06:05:20;3.58;;;1.58;;
69057;SDS011;56128;37.534;-122.308;2023-06-26T06:07:47;3.47;;;2.03;;
69057;SDS011;56128;37.534;-122.308;2023-06-26T06:10:13;3.63;;;1.67;;
69057;SDS011;56128;37.534;-122.308;2023-06-26T06:12:40;3.13;;;1.77;;
69057;SDS011;56128;37.534;-122.308;2023-06-26T06:15:06;2.53;;;1.50;;
69057;SDS011;56128;37.534;-122.308;2023-06-26T06:17:32;4.60;;;1.70;;
69057;SDS011;56128;37.534;-122.308;2023-06-26T06:19:59;4.97;;;1.55;;
69057;SDS011;56128;37.534;-122.308;2023-06-26T06:22:25;3.78;;;1.55;;
69057;SDS011;56128;37.534;-122.308;2023-06-26T06:24:51;2.63;;;1.30;;
69057;SDS011;56128;37.534;-122.308;2023-06-26T06:27:17;3.10;;;1.20;;
69057;SDS011;56128;37.534;-122.308;2023-06-26T06:29:44;3.05;;;1.25;;
69057;SDS011;56128;37.534;-122.308;2023-06-26T06:32:10;3.30;;;1.20;;
69057;SDS011;56128;37.534;-122.308;2023-06-26T06:34:36;3.45;;;1.52;;
69057;SDS011;56128;37.534;-122.308;2023-06-26T06:37:03;6.75;;;1.40;;
69057;SDS011;56128;37.534;-122.308;2023-06-26T06:39:29;3.40;;;1.20;;
69057;SDS011;56128;37.534;-122.308;2023-06-26T06:41:55;2.15;;;1.23;;
69057;SDS011;56128;37.534;-122.308;2023-06-26T06:44:22;1.92;;;1.05;;
69057;SDS011;56128;37.534;-122.308;2023-06-26T06:46:48;3.15;;;1.20;;
69057;SDS011;56128;37.534;-122.308;2023-06-26T06:49:14;5.03;;;1.65;;
69057;SDS011;56128;37.534;-122.308;2023-06-26T06:51:40;2.78;;;1.15;;
69057;SDS011;56128;37.534;-122.308;2023-06-26T06:54:07;4.68;;;1.20;;
69057;SDS011;56128;37.534;-122.308;2023-06-26T06:56:33;2.17;;;1.25;;
69057;SDS011;56128;37.534;-122.308;2023-06-26T06:58:59;2.80;;;1.40;;
69057;SDS011;56128;37.534;-122.308;2023-06-26T07:01:25;3.97;;;1.67;;
69057;SDS011;56128;37.534;-122.308;2023-06-26T07:03:52;2.63;;;1.67;;
69057;SDS011;56128;37.534;-122.308;2023-06-26T07:06:18;2.95;;;1.73;;
69057;SDS011;56128;37.534;-122.308;2023-06-26T07:08:45;2.15;;;1.67;;
69057;SDS011;56128;37.534;-122.308;2023-06-26T07:11:11;4.70;;;1.88;;
69057;SDS011;56128;37.534;-122.308;2023-06-26T07:13:37;4.00;;;1.65;;
69057;SDS011;56128;37.534;-122.308;2023-06-26T07:16:03;3.55;;;1.80;;
69057;SDS011;56128;37.534;-122.308;2023-06-26T07:18:30;6.30;;;2.33;;
69057;SDS011;56128;37.534;-122.308;2023-06-26T07:20:56;4.43;;;1.90;;
69057;SDS011;56128;37.534;-122.308;2023-06-26T07:23:23;5.97;;;1.73;;
69057;SDS011;56128;37.534;-122.308;2023-06-26T07:25:49;6.80;;;2.05;;
69057;SDS011;56128;37.534;-122.308;2023-06-26T07:28:15;4.00;;;1.85;;
69057;SDS011;56128;37.534;-122.308;2023-06-26T07:30:41;5.45;;;1.95;;
69057;SDS011;56128;37.534;-122.308;2023-06-26T07:33:08;4.45;;;1.90;;
69057;SDS011;56128;37.534;-122.308;2023-06-26T07:35:34;6.07;;;2.33;;
69057;SDS011;56128;37.534;-122.308;2023-06-26T07:38:00;5.63;;;2.35;;
69057;SDS011;56128;37.534;-122.308;2023-06-26T07:40:26;3.17;;;1.77;;
69057;SDS011;56128;37.534;-122.308;2023-06-26T07:42:53;4.88;;;2.15;;
69057;SDS011;56128;37.534;-122.308;2023-06-26T07:45:19;6.10;;;1.77;;
69057;SDS011;56128;37.534;-122.308;2023-06-26T07:47:45;4.80;;;1.98;;
69057;SDS011;56128;37.534;-122.308;2023-06-26T07:50:12;3.53;;;1.83;;
69057;SDS011;56128;37.534;-122.308;2023-06-26T07:52:41;2.22;;;1.58;;
69057;SDS011;56128;37.534;-122.308;2023-06-26T07:55:07;2.83;;;1.75;;
69057;SDS011;56128;37.534;-122.308;2023-06-26T07:57:33;3.33;;;1.80;;
69057;SDS011;56128;37.534;-122.308;2023-06-26T07:59:59;4.43;;;2.10;;
69057;SDS011;56128;37.534;-122.308;2023-06-26T08:02:26;4.72;;;2.60;;
69057;SDS011;56128;37.534;-122.308;2023-06-26T08:04:52;4.20;;;1.80;;
69057;SDS011;56128;37.534;-122.308;2023-06-26T08:07:18;4.10;;;2.20;;
69057;SDS011;56128;37.534;-122.308;2023-06-26T08:09:44;5.47;;;2.00;;
69057;SDS011;56128;37.534;-122.308;2023-06-26T08:12:11;6.03;;;2.65;;
69057;SDS011;56128;37.534;-122.308;2023-06-26T08:14:37;6.28;;;3.00;;
69057;SDS011;56128;37.534;-122.308;2023-06-26T08:17:03;6.18;;;2.63;;
69057;SDS011;56128;37.534;-122.308;2023-06-26T08:19:29;5.55;;;2.92;;
69057;SDS011;56128;37.534;-122.308;2023-06-26T08:21:56;4.78;;;2.30;;
69057;SDS011;56128;37.534;-122.308;2023-06-26T08:24:22;6.85;;;2.72;;
69057;SDS011;56128;37.534;-122.308;2023-06-26T08:26:48;7.30;;;2.80;;
69057;SDS011;56128;37.534;-122.308;2023-06-26T08:29:14;9.25;;;2.85;;
69057;SDS011;56128;37.534;-122.308;2023-06-26T08:31:41;8.93;;;3.10;;
69057;SDS011;56128;37.534;-122.308;2023-06-26T08:34:08;6.65;;;2.60;;
69057;SDS011;56128;37.534;-122.308;2023-06-26T08:36:35;6.18;;;2.97;;
69057;SDS011;56128;37.534;-122.308;2023-06-26T08:39:01;5.45;;;2.67;;
69057;SDS011;56128;37.534;-122.308;2023-06-26T08:41:30;7.72;;;3.13;;
69057;SDS011;56128;37.534;-122.308;2023-06-26T08:43:56;10.70;;;3.40;;
69057;SDS011;56128;37.534;-122.308;2023-06-26T08:46:23;6.75;;;2.85;;
69057;SDS011;56128;37.534;-122.308;2023-06-26T08:48:51;8.50;;;3.10;;
69057;SDS011;56128;37.534;-122.308;2023-06-26T08:51:21;8.10;;;3.40;;
69057;SDS011;56128;37.534;-122.308;2023-06-26T08:53:57;8.80;;;3.00;;
69057;SDS011;56128;37.534;-122.308;2023-06-26T08:56:32;11.32;;;3.13;;
69057;SDS011;56128;37.534;-122.308;2023-06-26T08:59:01;8.40;;;3.13;;
69057;SDS011;56128;37.534;-122.308;2023-06-26T09:01:28;7.90;;;3.40;;
69057;SDS011;56128;37.534;-122.308;2023-06-26T09:03:54;8.10;;;3.20;;
69057;SDS011;56128;37.534;-122.308;2023-06-26T09:06:20;10.02;;;3.10;;
69057;SDS011;56128;37.534;-122.308;2023-06-26T09:08:46;5.90;;;2.75;;
69057;SDS011;56128;37.534;-122.308;2023-06-26T09:11:13;15.43;;;3.35;;
69057;SDS011;56128;37.534;-122.308;2023-06-26T09:13:39;7.30;;;2.85;;
69057;SDS011;56128;37.534;-122.308;2023-06-26T09:16:06;7.68;;;3.35;;
69057;SDS011;56128;37.534;-122.308;2023-06-26T09:18:33;8.00;;;3.03;;
69057;SDS011;56128;37.534;-122.308;2023-06-26T09:21:00;8.15;;;3.40;;
69057;SDS011;56128;37.534;-122.308;2023-06-26T09:23:31;14.40;;;3.88;;
69057;SDS011;56128;37.534;-122.308;2023-06-26T09:25:57;13.93;;;3.40;;
69057;SDS011;56128;37.534;-122.308;2023-06-26T09:28:24;8.23;;;2.95;;
69057;SDS011;56128;37.534;-122.308;2023-06-26T09:30:50;8.25;;;3.22;;
69057;SDS011;56128;37.534;-122.308;2023-06-26T09:33:18;9.32;;;3.50;;
69057;SDS011;56128;37.534;-122.308;2023-06-26T09:35:45;6.90;;;3.08;;
69057;SDS011;56128;37.534;-122.308;2023-06-26T09:38:12;8.95;;;2.78;;
69057;SDS011;56128;37.534;-122.308;2023-06-26T09:40:40;7.78;;;2.90;;
69057;SDS011;56128;37.534;-122.308;2023-06-26T09:43:07;11.10;;;3.88;;
69057;SDS011;56128;37.534;-122.308;2023-06-26T09:45:35;9.07;;;2.92;;
69057;SDS011;56128;37.534;-122.308;2023-06-26T09:48:02;8.10;;;2.90;;
69057;SDS011;56128;37.534;-122.308;2023-06-26T09:50:29;11.85;;;3.25;;
69057;SDS011;56128;37.534;-122.308;2023-06-26T09:52:57;10.82;;;3.65;;
69057;SDS011;56128;37.534;-122.308;2023-06-26T09:55:24;13.43;;;3.47;;
69057;SDS011;56128;37.534;-122.308;2023-06-26T09:57:51;11.43;;;3.42;;
69057;SDS011;56128;37.534;-122.308;2023-06-26T10:00:18;14.00;;;3.15;;
69057;SDS011;56128;37.534;-122.308;2023-06-26T10:02:45;9.80;;;3.22;;
69057;SDS011;56128;37.534;-122.308;2023-06-26T10:05:11;10.80;;;3.30;;
69057;SDS011;56128;37.534;-122.308;2023-06-26T10:07:37;12.82;;;3.08;;
69057;SDS011;56128;37.534;-122.308;2023-06-26T10:10:05;9.45;;;3.40;;
69057;SDS011;56128;37.534;-122.308;2023-06-26T10:12:33;10.68;;;3.28;;
69057;SDS011;56128;37.534;-122.308;2023-06-26T10:15:00;8.85;;;3.67;;
69057;SDS011;56128;37.534;-122.308;2023-06-26T10:17:30;11.10;;;3.75;;
69057;SDS011;56128;37.534;-122.308;2023-06-26T10:20:01;13.45;;;3.50;;
69057;SDS011;56128;37.534;-122.308;2023-06-26T10:22:29;10.15;;;3.10;;
69057;SDS011;56128;37.534;-122.308;2023-06-26T10:25:01;9.97;;;3.50;;
69057;SDS011;56128;37.534;-122.308;2023-06-26T10:27:33;10.88;;;2.97;;
69057;SDS011;56128;37.534;-122.308;2023-06-26T10:32:32;13.82;;;3.60;;
69057;SDS011;56128;37.534;-122.308;2023-06-26T10:34:59;9.10;;;2.78;;
69057;SDS011;56128;37.534;-122.308;2023-06-26T10:37:40;11.23;;;3.38;;
69057;SDS011;56128;37.534;-122.308;2023-06-26T10:40:09;13.45;;;3.38;;
69057;SDS011;56128;37.534;-122.308;2023-06-26T10:42:37;12.77;;;3.45;;
69057;SDS011;56128;37.534;-122.308;2023-06-26T10:47:47;11.35;;;3.03;;
69057;SDS011;56128;37.534;-122.308;2023-06-26T10:50:19;7.82;;;3.10;;
69057;SDS011;56128;37.534;-122.308;2023-06-26T10:56:01;11.10;;;3.28;;
69057;SDS011;56128;37.534;-122.308;2023-06-26T11:01:14;8.57;;;3.33;;
69057;SDS011;56128;37.534;-122.308;2023-06-26T11:03:46;11.43;;;3.13;;
69057;SDS011;56128;37.534;-122.308;2023-06-26T11:14:19;12.25;;;3.47;;
69057;SDS011;56128;37.534;-122.308;2023-06-26T11:16:46;10.68;;;3.05;;
69057;SDS011;56128;37.534;-122.308;2023-06-26T11:19:14;10.57;;;3.13;;
69057;SDS011;56128;37.534;-122.308;2023-06-26T11:21:42;8.82;;;2.85;;
69057;SDS011;56128;37.534;-122.308;2023-06-26T11:24:09;14.15;;;2.65;;
69057;SDS011;56128;37.534;-122.308;2023-06-26T11:26:40;12.88;;;2.72;;
69057;SDS011;56128;37.534;-122.308;2023-06-26T11:29:08;8.18;;;2.42;;
69057;SDS011;56128;37.534;-122.308;2023-06-26T11:31:36;11.30;;;2.97;;
69057;SDS011;56128;37.534;-122.308;2023-06-26T11:34:04;12.13;;;3.42;;
69057;SDS011;56128;37.534;-122.308;2023-06-26T11:39:06;11.63;;;2.92;;
69057;SDS011;56128;37.534;-122.308;2023-06-26T11:41:33;14.27;;;2.85;;
69057;SDS011;56128;37.534;-122.308;2023-06-26T11:44:03;12.65;;;3.38;;
69057;SDS011;56128;37.534;-122.308;2023-06-26T11:46:30;14.27;;;3.33;;
69057;SDS011;56128;37.534;-122.308;2023-06-26T11:48:57;10.65;;;3.55;;
69057;SDS011;56128;37.534;-122.308;2023-06-26T11:51:23;9.75;;;3.05;;
69057;SDS011;56128;37.534;-122.308;2023-06-26T11:53:53;12.52;;;3.13;;
69057;SDS011;56128;37.534;-122.308;2023-06-26T11:56:20;11.90;;;2.78;;
69057;SDS011;56128;37.534;-122.308;2023-06-26T11:59:04;13.98;;;3.65;;
69057;SDS011;56128;37.534;-122.308;2023-06-26T12:04:01;12.60;;;2.80;;
69057;SDS011;56128;37.534;-122.308;2023-06-26T12:06:29;7.57;;;2.50;;
69057;SDS011;56128;37.534;-122.308;2023-06-26T12:08:58;8.98;;;2.80;;
69057;SDS011;56128;37.534;-122.308;2023-06-26T12:11:27;13.05;;;3.10;;
69057;SDS011;56128;37.534;-122.308;2023-06-26T12:13:56;9.00;;;2.58;;
69057;SDS011;56128;37.534;-122.308;2023-06-26T12:16:23;10.07;;;2.40;;
69057;SDS011;56128;37.534;-122.308;2023-06-26T12:18:50;8.35;;;2.28;;
69057;SDS011;56128;37.534;-122.308;2023-06-26T12:24:12;7.43;;;2.72;;
69057;SDS011;56128;37.534;-122.308;2023-06-26T12:26:46;11.00;;;2.80;;
69057;SDS011;56128;37.534;-122.308;2023-06-26T12:29:18;6.70;;;2.42;;
69057;SDS011;56128;37.534;-122.308;2023-06-26T12:31:46;6.50;;;2.20;;
69057;SDS011;56128;37.534;-122.308;2023-06-26T12:34:17;9.88;;;2.70;;
69057;SDS011;56128;37.534;-122.308;2023-06-26T12:36:46;10.13;;;3.00;;
69057;SDS011;56128;37.534;-122.308;2023-06-26T12:39:16;8.38;;;2.40;;
69057;SDS011;56128;37.534;-122.308;2023-06-26T12:41:45;10.95;;;2.78;;
69057;SDS011;56128;37.534;-122.308;2023-06-26T12:44:35;10.80;;;2.60;;
69057;SDS011;56128;37.534;-122.308;2023-06-26T12:47:02;11.93;;;2.88;;
69057;SDS011;56128;37.534;-122.308;2023-06-26T12:49:33;10.77;;;2.42;;
69057;SDS011;56128;37.534;-122.308;2023-06-26T12:52:07;13.32;;;2.55;;
69057;SDS011;56128;37.534;-122.308;2023-06-26T12:54:39;9.70;;;2.47;;
69057;SDS011;56128;37.534;-122.308;2023-06-26T12:57:07;8.05;;;2.30;;
69057;SDS011;56128;37.534;-122.308;2023-06-26T12:59:35;10.70;;;2.50;;
69057;SDS011;56128;37.534;-122.308;2023-06-26T13:02:02;4.93;;;1.98;;
69057;SDS011;56128;37.534;-122.308;2023-06-26T13:04:29;6.97;;;1.92;;
69057;SDS011;56128;37.534;-122.308;2023-06-26T13:06:55;11.48;;;2.58;;
69057;SDS011;56128;37.534;-122.308;2023-06-26T13:09:22;9.93;;;2.58;;
69057;SDS011;56128;37.534;-122.308;2023-06-26T13:11:53;6.03;;;2.15;;
69057;SDS011;56128;37.534;-122.308;2023-06-26T13:14:20;9.18;;;2.33;;
69057;SDS011;56128;37.534;-122.308;2023-06-26T13:16:46;8.55;;;2.13;;
69057;SDS011;56128;37.534;-122.308;2023-06-26T13:19:13;7.40;;;2.20;;
69057;SDS011;56128;37.534;-122.308;2023-06-26T13:21:39;6.30;;;1.88;;
69057;SDS011;56128;37.534;-122.308;2023-06-26T13:24:05;7.47;;;2.10;;
69057;SDS011;56128;37.534;-122.308;2023-06-26T13:26:32;6.80;;;2.05;;
69057;SDS011;56128;37.534;-122.308;2023-06-26T13:28:58;8.55;;;2.10;;
69057;SDS011;56128;37.534;-122.308;2023-06-26T13:31:25;7.32;;;2.40;;
69057;SDS011;56128;37.534;-122.308;2023-06-26T13:33:51;10.32;;;2.63;;
69057;SDS011;56128;37.534;-122.308;2023-06-26T13:36:18;7.45;;;2.30;;
69057;SDS011;56128;37.534;-122.308;2023-06-26T13:38:45;7.88;;;1.95;;
69057;SDS011;56128;37.534;-122.308;2023-06-26T13:41:11;8.15;;;2.40;;
69057;SDS011;56128;37.534;-122.308;2023-06-26T13:43:38;11.13;;;2.42;;
69057;SDS011;56128;37.534;-122.308;2023-06-26T13:46:04;8.80;;;2.17;;
69057;SDS011;56128;37.534;-122.308;2023-06-26T13:48:30;7.10;;;1.95;;
69057;SDS011;56128;37.534;-122.308;2023-06-26T13:50:58;7.40;;;1.77;;
69057;SDS011;56128;37.534;-122.308;2023-06-26T13:53:25;6.82;;;1.77;;
69057;SDS011;56128;37.534;-122.308;2023-06-26T13:55:51;8.57;;;1.90;;
69057;SDS011;56128;37.534;-122.308;2023-06-26T13:58:17;8.50;;;2.45;;
69057;SDS011;56128;37.534;-122.308;2023-06-26T14:00:47;9.10;;;1.95;;
69057;SDS011;56128;37.534;-122.308;2023-06-26T14:03:14;8.18;;;1.88;;
69057;SDS011;56128;37.534;-122.308;2023-06-26T14:05:40;7.65;;;1.52;;
69057;SDS011;56128;37.534;-122.308;2023-06-26T14:08:07;9.63;;;2.05;;
69057;SDS011;56128;37.534;-122.308;2023-06-26T14:10:34;4.45;;;1.63;;
69057;SDS011;56128;37.534;-122.308;2023-06-26T14:13:01;7.97;;;2.30;;
69057;SDS011;56128;37.534;-122.308;2023-06-26T14:15:28;6.18;;;1.77;;
69057;SDS011;56128;37.534;-122.308;2023-06-26T14:17:55;7.53;;;2.05;;
69057;SDS011;56128;37.534;-122.308;2023-06-26T14:20:21;5.18;;;1.63;;
69057;SDS011;56128;37.534;-122.308;2023-06-26T14:22:48;11.43;;;1.70;;
69057;SDS011;56128;37.534;-122.308;2023-06-26T14:25:15;10.40;;;2.80;;
69057;SDS011;56128;37.534;-122.308;2023-06-26T14:27:42;7.05;;;1.73;;
69057;SDS011;56128;37.534;-122.308;2023-06-26T14:30:28;7.15;;;1.90;;
69057;SDS011;56128;37.534;-122.308;2023-06-26T14:32:54;7.35;;;1.70;;
69057;SDS011;56128;37.534;-122.308;2023-06-26T14:35:21;5.88;;;2.03;;
69057;SDS011;56128;37.534;-122.308;2023-06-26T14:37:48;7.35;;;2.05;;
69057;SDS011;56128;37.534;-122.308;2023-06-26T14:40:15;10.65;;;2.05;;
69057;SDS011;56128;37.534;-122.308;2023-06-26T14:42:41;8.55;;;1.90;;